Time;durP1;ratioP1;P1;durP2;ratioP2;P2;SDS_P1;SDS_P2;PMS_P1;PMS_P2;Temp;Humidity;BMP_temperature;BMP_pressure;BME280_temperature;BME280_humidity;BME280_pressure;Samples;Min_cycle;Max_cycle;Signal;HPM_P1;HPM_P2
2022/04/13 00:02:01;;;;;;;11.48;7.13;;;13.30;1.00;;;;;;5060847;28;20463;-90
2022/04/13 00:04:27;;;;;;;7.75;6.47;;;13.20;1.00;;;;;;5041633;28;20066;-90
2022/04/13 00:06:53;;;;;;;11.13;6.60;;;13.20;1.00;;;;;;5044188;28;20418;-91
2022/04/13 00:09:22;;;;;;;8.82;6.57;;;13.10;9.20;;;;;;5042544;28;20456;-90
2022/04/13 00:11:48;;;;;;;12.63;7.15;;;13.00;39.60;;;;;;5044854;28;20135;-91
2022/04/13 00:14:13;;;;;;;9.07;6.78;;;13.00;50.10;;;;;;5044536;28;20143;-90
2022/04/13 00:16:39;;;;;;;11.73;7.15;;;13.00;26.40;;;;;;5042923;28;20075;-91
2022/04/13 00:19:05;;;;;;;11.20;7.22;;;13.00;34.40;;;;;;5043215;28;20070;-91
2022/04/13 00:21:31;;;;;;;8.27;6.38;;;12.90;26.50;;;;;;5042045;28;20602;-91
2022/04/13 00:23:57;;;;;;;9.40;7.20;;;12.90;25.20;;;;;;5042969;28;20048;-92
2022/04/13 00:26:25;;;;;;;10.55;7.55;;;12.90;26.80;;;;;;5044435;28;20047;-91
2022/04/13 00:28:51;;;;;;;8.50;6.88;;;12.80;57.00;;;;;;5058194;28;20041;-91
2022/04/13 00:31:16;;;;;;;11.68;6.65;;;12.80;64.40;;;;;;5042477;28;20060;-90
2022/04/13 00:33:42;;;;;;;10.45;7.40;;;12.80;57.10;;;;;;5051647;28;20123;-90
2022/04/13 00:36:08;;;;;;;10.95;7.47;;;12.70;84.20;;;;;;5041293;28;20468;-90
2022/04/13 00:38:34;;;;;;;11.88;7.70;;;12.60;99.20;;;;;;5041511;28;20106;-91
2022/04/13 00:40:59;;;;;;;7.95;7.13;;;12.60;99.90;;;;;;5042364;28;20128;-90
2022/04/13 00:43:25;;;;;;;14.13;7.65;;;12.50;97.20;;;;;;5059629;28;20352;-93
2022/04/13 00:45:52;;;;;;;10.27;7.22;;;12.50;99.90;;;;;;5042688;28;20128;-92
2022/04/13 00:48:39;;;;;;;9.75;7.82;;;12.50;95.80;;;;;;5040312;28;20041;-92
2022/04/13 00:51:07;;;;;;;10.52;7.15;;;12.50;99.90;;;;;;5057290;28;20037;-93
2022/04/13 00:53:35;;;;;;;11.38;7.50;;;12.50;92.20;;;;;;5040758;28;20071;-92
2022/04/13 00:56:04;;;;;;;10.73;7.43;;;12.50;86.30;;;;;;5038609;28;20287;-90
2022/04/13 00:58:33;;;;;;;9.85;7.60;;;12.60;89.70;;;;;;5051742;28;20044;-92
2022/04/13 01:01:02;;;;;;;10.13;6.93;;;12.50;96.60;;;;;;5041694;28;20047;-92
2022/04/13 01:03:35;;;;;;;10.38;7.53;;;12.50;90.80;;;;;;5049955;28;20059;-90
2022/04/13 01:06:02;;;;;;;8.73;7.20;;;12.50;97.10;;;;;;5059874;28;20028;-91
2022/04/13 01:08:32;;;;;;;10.75;7.93;;;12.40;99.90;;;;;;5044126;28;20102;-92
2022/04/13 01:10:58;;;;;;;10.52;7.90;;;12.40;92.90;;;;;;5045231;28;20055;-93
2022/04/13 01:13:24;;;;;;;11.95;8.20;;;12.30;98.70;;;;;;5049936;28;20040;-91
2022/04/13 01:15:50;;;;;;;11.05;8.10;;;12.30;99.90;;;;;;5046081;28;20036;-92
2022/04/13 01:18:18;;;;;;;9.68;7.65;;;12.30;99.90;;;;;;5048723;28;20052;-91
2022/04/13 01:20:52;;;;;;;9.55;7.50;;;12.30;99.90;;;;;;5045652;28;20033;-91
2022/04/13 01:23:20;;;;;;;11.05;8.05;;;12.30;99.90;;;;;;5047822;28;20044;-92
2022/04/13 01:25:51;;;;;;;11.05;8.20;;;12.30;99.90;;;;;;5045286;28;20570;-90
2022/04/13 01:28:19;;;;;;;11.48;8.20;;;12.20;99.90;;;;;;5046670;28;20072;-93
2022/04/13 01:30:45;;;;;;;10.48;8.25;;;12.20;99.90;;;;;;5047136;28;20134;-90
2022/04/13 01:33:12;;;;;;;11.82;8.63;;;12.20;99.90;;;;;;5045559;28;20045;-90
2022/04/13 01:35:38;;;;;;;11.00;7.95;;;12.20;99.90;;;;;;5044226;28;20036;-91
2022/04/13 01:38:04;;;;;;;11.18;8.27;;;12.20;99.90;;;;;;5044698;28;20071;-91
2022/04/13 01:40:30;;;;;;;13.30;9.10;;;12.20;99.90;;;;;;5047599;28;20250;-90
2022/04/13 01:42:56;;;;;;;12.50;8.50;;;12.10;99.90;;;;;;5044432;28;20559;-91
2022/04/13 01:45:22;;;;;;;12.00;8.85;;;12.20;99.90;;;;;;5043455;28;20123;-92
2022/04/13 01:47:49;;;;;;;11.38;8.65;;;12.10;99.90;;;;;;5045266;28;20297;-90
2022/04/13 01:50:16;;;;;;;11.10;8.45;;;12.10;99.90;;;;;;5053748;28;20032;-90
2022/04/13 01:52:43;;;;;;;12.57;8.98;;;12.20;99.90;;;;;;5045942;28;20461;-91
2022/04/13 01:55:09;;;;;;;11.75;9.35;;;12.20;99.90;;;;;;5045518;28;20040;-91
2022/04/13 01:57:36;;;;;;;13.40;9.48;;;12.20;99.90;;;;;;5046427;28;20047;-92
2022/04/13 02:00:07;;;;;;;12.55;9.00;;;12.30;99.90;;;;;;5045945;28;20124;-91
2022/04/13 02:02:33;;;;;;;13.65;9.93;;;12.30;99.90;;;;;;5043868;28;20048;-92
2022/04/13 02:04:59;;;;;;;14.57;9.65;;;12.30;99.90;;;;;;5046458;28;20059;-89
2022/04/13 02:07:26;;;;;;;14.25;9.73;;;12.30;99.90;;;;;;5046083;28;20044;-91
2022/04/13 02:09:53;;;;;;;14.85;10.00;;;12.30;99.90;;;;;;5045552;28;20084;-90
2022/04/13 02:12:19;;;;;;;14.32;10.13;;;12.30;99.90;;;;;;5063365;28;20297;-91
2022/04/13 02:14:45;;;;;;;15.23;10.40;;;12.30;99.90;;;;;;5045715;28;20534;-91
2022/04/13 02:17:14;;;;;;;13.02;9.65;;;12.30;99.90;;;;;;5046137;28;20115;-91
2022/04/13 02:19:41;;;;;;;14.50;10.18;;;12.30;99.90;;;;;;5043286;28;20039;-92
2022/04/13 02:22:10;;;;;;;14.70;10.10;;;12.40;99.90;;;;;;5045373;28;20591;-92
2022/04/13 02:24:36;;;;;;;15.20;10.40;;;12.30;99.90;;;;;;5044401;28;20028;-93
2022/04/13 02:27:02;;;;;;;13.60;10.25;;;12.40;99.90;;;;;;5063284;28;20105;-91
2022/04/13 02:29:28;;;;;;;16.45;10.68;;;12.30;99.90;;;;;;5062231;28;20048;-92
2022/04/13 02:31:57;;;;;;;14.02;10.77;;;12.20;99.90;;;;;;5046544;28;20033;-90
2022/04/13 02:34:23;;;;;;;15.20;10.30;;;12.20;99.90;;;;;;5045640;28;20110;-91
2022/04/13 02:36:49;;;;;;;15.02;11.35;;;12.20;99.90;;;;;;5045830;28;20197;-90
2022/04/13 02:39:14;;;;;;;16.92;11.07;;;12.20;99.90;;;;;;5045250;28;20071;-91
2022/04/13 02:41:40;;;;;;;13.40;10.07;;;12.20;99.90;;;;;;5063943;28;20410;-91
2022/04/13 02:44:06;;;;;;;15.98;11.50;;;12.10;99.90;;;;;;5046906;28;20491;-93
2022/04/13 02:46:32;;;;;;;14.88;11.40;;;12.10;99.90;;;;;;5045027;28;20133;-91
2022/04/13 02:48:58;;;;;;;15.95;10.98;;;12.10;99.90;;;;;;5045775;28;20194;-91
2022/04/13 02:51:23;;;;;;;13.85;10.77;;;12.10;99.90;;;;;;5046570;28;20028;-91
2022/04/13 02:53:49;;;;;;;17.15;11.48;;;12.00;99.90;;;;;;5044617;28;20597;-90
2022/04/13 02:56:18;;;;;;;17.60;11.57;;;12.10;99.90;;;;;;5042977;28;20118;-91
2022/04/13 02:58:44;;;;;;;16.58;11.57;;;12.10;99.90;;;;;;5052050;28;20492;-90
2022/04/13 03:01:10;;;;;;;14.20;11.50;;;12.10;99.90;;;;;;5047891;28;20049;-91
2022/04/13 03:03:36;;;;;;;17.50;12.15;;;12.10;99.90;;;;;;5046587;28;20048;-90
2022/04/13 03:06:02;;;;;;;17.85;12.38;;;12.10;99.90;;;;;;5048385;28;20041;-91
2022/04/13 03:08:27;;;;;;;17.92;12.45;;;12.00;99.90;;;;;;5045008;28;20052;-92
2022/04/13 03:10:53;;;;;;;16.02;12.18;;;12.10;99.90;;;;;;5046783;28;20527;-92
2022/04/13 03:13:19;;;;;;;17.83;12.77;;;12.10;99.90;;;;;;5042834;28;20227;-92
2022/04/13 03:15:45;;;;;;;17.33;12.85;;;12.10;99.90;;;;;;5048416;28;20041;-89
2022/04/13 03:18:10;;;;;;;22.30;12.75;;;12.00;99.90;;;;;;5047303;28;20123;-90
2022/04/13 03:20:36;;;;;;;19.45;12.98;;;12.00;99.90;;;;;;5046088;28;20143;-91
2022/04/13 03:23:03;;;;;;;16.67;12.43;;;12.00;99.90;;;;;;5053771;28;20092;-92
2022/04/13 03:25:29;;;;;;;18.88;12.48;;;12.00;99.90;;;;;;5044929;28;20033;-90
2022/04/13 03:27:55;;;;;;;20.73;13.57;;;12.00;99.90;;;;;;5043837;28;20041;-92
2022/04/13 03:30:22;;;;;;;19.35;13.68;;;12.00;99.90;;;;;;5046066;28;20103;-91
2022/04/13 03:32:51;;;;;;;19.75;13.15;;;11.90;99.90;;;;;;5043086;28;20226;-90
2022/04/13 03:35:17;;;;;;;18.15;13.50;;;12.00;99.90;;;;;;5043704;28;20123;-92
2022/04/13 03:37:43;;;;;;;18.80;13.95;;;12.00;99.90;;;;;;5044004;28;20139;-91
2022/04/13 03:40:11;;;;;;;22.05;14.90;;;12.00;99.90;;;;;;5043905;28;20033;-91
2022/04/13 03:42:38;;;;;;;24.27;14.90;;;12.00;99.90;;;;;;5043754;28;20147;-91
2022/04/13 03:45:12;;;;;;;18.45;14.23;;;12.00;99.90;;;;;;5044112;28;20135;-90
2022/04/13 03:47:39;;;;;;;22.42;13.70;;;12.00;99.90;;;;;;5041164;28;20159;-90
2022/04/13 03:50:06;;;;;;;23.88;14.65;;;12.00;99.90;;;;;;5043052;28;20047;-90
2022/04/13 03:52:33;;;;;;;18.70;14.00;;;12.00;99.90;;;;;;5044188;28;20040;-91
2022/04/13 03:55:00;;;;;;;24.55;14.57;;;12.10;99.90;;;;;;5043538;28;20048;-92
2022/04/13 03:57:26;;;;;;;21.50;14.05;;;12.00;99.90;;;;;;5043181;28;20044;-90
2022/04/13 03:59:51;;;;;;;23.10;14.90;;;12.10;99.90;;;;;;5043749;28;20045;-91
2022/04/13 04:02:17;;;;;;;18.98;13.43;;;12.10;99.90;;;;;;5059931;28;20097;-91
2022/04/13 04:04:43;;;;;;;19.10;14.13;;;12.10;99.90;;;;;;5043600;28;20086;-91
2022/04/13 04:07:09;;;;;;;21.48;14.18;;;12.00;99.90;;;;;;5042552;28;20036;-93
2022/04/13 04:09:35;;;;;;;23.33;14.27;;;12.00;99.90;;;;;;5042732;28;20064;-91
2022/04/13 04:12:04;;;;;;;19.45;13.88;;;12.00;99.90;;;;;;5042555;28;20451;-91
2022/04/13 04:14:29;;;;;;;19.95;13.48;;;12.00;99.90;;;;;;5043185;28;20456;-92
2022/04/13 04:16:55;;;;;;;18.83;13.63;;;11.90;99.90;;;;;;5042026;28;20059;-90
2022/04/13 04:19:21;;;;;;;24.98;14.15;;;11.90;99.90;;;;;;5043364;28;20317;-91
2022/04/13 04:21:47;;;;;;;20.10;13.80;;;11.80;99.90;;;;;;5044465;28;20458;-90
2022/04/13 04:24:13;;;;;;;19.75;14.15;;;11.80;99.90;;;;;;5043423;28;20090;-91
2022/04/13 04:26:39;;;;;;;24.85;15.10;;;11.80;99.90;;;;;;5042860;28;20040;-91
2022/04/13 04:29:08;;;;;;;22.15;14.40;;;11.70;99.90;;;;;;5044136;28;20116;-90
2022/04/13 04:31:53;;;;;;;23.63;15.02;;;11.70;99.90;;;;;;5043630;28;20548;-91
2022/04/13 04:34:22;;;;;;;20.45;14.57;;;11.70;99.90;;;;;;5052181;28;20059;-91
2022/04/13 04:36:51;;;;;;;21.08;14.68;;;11.60;99.90;;;;;;5041100;28;20457;-89
2022/04/13 04:39:17;;;;;;;24.75;15.02;;;11.60;99.90;;;;;;5041779;28;20442;-92
2022/04/13 04:41:43;;;;;;;20.35;14.15;;;11.60;99.90;;;;;;5039858;28;20518;-91
2022/04/13 04:44:10;;;;;;;25.33;15.15;;;11.60;99.90;;;;;;5046270;28;20040;-93
2022/04/13 04:46:37;;;;;;;19.70;14.80;;;11.60;99.90;;;;;;5047141;28;20036;-91
2022/04/13 04:49:06;;;;;;;23.17;14.93;;;11.60;99.90;;;;;;5046811;28;20049;-91
2022/04/13 04:51:32;;;;;;;20.25;14.57;;;11.60;1.00;;;;;;5046494;28;20444;-91
2022/04/13 04:54:02;;;;;;;21.35;14.45;;;11.50;99.90;;;;;;5047127;28;20486;-90
2022/04/13 04:56:29;;;;;;;19.77;15.00;;;11.60;99.90;;;;;;5061238;28;20484;-91
2022/04/13 04:58:58;;;;;;;23.73;14.45;;;11.60;99.90;;;;;;5064965;28;20370;-90
2022/04/13 05:01:24;;;;;;;21.92;15.35;;;11.60;99.90;;;;;;5047461;28;20119;-90
2022/04/13 05:03:50;;;;;;;24.13;15.07;;;11.60;99.90;;;;;;5046758;28;20559;-91
2022/04/13 05:06:19;;;;;;;22.98;16.33;;;11.70;99.90;;;;;;5046556;28;20045;-90
2022/04/13 05:08:44;;;;;;;23.88;16.08;;;11.70;99.90;;;;;;5046219;28;20058;-90
2022/04/13 05:11:10;;;;;;;23.27;15.55;;;11.70;99.90;;;;;;5045641;28;20292;-92
2022/04/13 05:13:39;;;;;;;26.30;16.00;;;11.70;99.90;;;;;;5045980;28;20041;-91
2022/04/13 05:16:06;;;;;;;23.08;15.93;;;11.80;99.90;;;;;;5045900;28;20036;-91
2022/04/13 05:18:32;;;;;;;24.05;15.90;;;11.80;99.90;;;;;;5047694;28;20036;-92
2022/04/13 05:20:59;;;;;;;22.67;15.98;;;11.80;99.90;;;;;;5046385;28;20062;-87
2022/04/13 05:23:24;;;;;;;24.83;16.63;;;11.90;99.90;;;;;;5041877;28;20097;-86
2022/04/13 05:25:50;;;;;;;25.00;15.70;;;11.90;99.90;;;;;;5040136;28;20044;-86
2022/04/13 05:28:19;;;;;;;22.35;15.93;;;11.90;99.90;;;;;;5042972;28;20058;-86
2022/04/13 05:30:45;;;;;;;22.63;16.48;;;11.90;99.90;;;;;;5058098;28;20492;-88
2022/04/13 05:33:12;;;;;;;25.48;16.63;;;12.00;99.90;;;;;;5044087;28;20033;-86
2022/04/13 05:35:38;;;;;;;24.75;16.33;;;12.00;99.90;;;;;;5037270;28;20048;-87
2022/04/13 05:38:05;;;;;;;25.15;16.63;;;12.00;99.90;;;;;;5043095;28;20420;-86
2022/04/13 05:40:31;;;;;;;24.42;15.80;;;12.00;99.90;;;;;;5039497;28;20120;-86
2022/04/13 05:42:56;;;;;;;23.05;15.65;;;12.00;99.90;;;;;;5043320;28;20041;-87
2022/04/13 05:45:22;;;;;;;24.77;16.55;;;11.90;99.90;;;;;;5042110;28;20368;-86
2022/04/13 05:47:48;;;;;;;29.65;16.50;;;12.00;99.90;;;;;;5038207;28;20155;-86
2022/04/13 05:50:14;;;;;;;23.17;15.93;;;12.00;99.90;;;;;;5041488;28;20029;-87
2022/04/13 05:52:41;;;;;;;23.13;15.68;;;12.00;99.90;;;;;;5042418;28;20151;-86
2022/04/13 05:55:08;;;;;;;23.52;16.38;;;12.00;99.90;;;;;;5041575;28;20047;-86
2022/04/13 05:57:34;;;;;;;22.95;15.95;;;12.00;99.90;;;;;;5042559;28;20055;-86
2022/04/13 06:00:04;;;;;;;24.27;15.70;;;12.00;99.90;;;;;;5061037;28;20372;-86
2022/04/13 06:02:30;;;;;;;27.98;17.02;;;12.10;99.90;;;;;;5060621;28;20028;-87
2022/04/13 06:04:56;;;;;;;25.75;16.08;;;12.10;99.90;;;;;;5044021;28;20055;-86
2022/04/13 06:07:22;;;;;;;23.00;16.10;;;12.20;99.90;;;;;;5043730;28;20032;-85
2022/04/13 06:09:47;;;;;;;24.67;15.98;;;12.30;99.90;;;;;;5044592;28;20039;-86
2022/04/13 06:12:24;;;;;;;21.58;15.75;;;12.40;99.90;;;;;;5059051;28;20059;-87
2022/04/13 06:14:50;;;;;;;21.45;15.20;;;12.50;99.90;;;;;;5042815;28;20101;-86
2022/04/13 06:17:16;;;;;;;22.02;15.35;;;12.60;99.90;;;;;;5042138;28;20707;-86
2022/04/13 06:19:43;;;;;;;22.83;16.20;;;12.70;1.00;;;;;;5039834;28;20057;-87
2022/04/13 06:22:10;;;;;;;23.60;15.77;;;12.80;99.90;;;;;;5057610;28;20305;-87
2022/04/13 06:24:36;;;;;;;21.92;16.65;;;13.00;99.90;;;;;;5041929;28;20509;-86
2022/04/13 06:27:02;;;;;;;31.65;15.75;;;13.10;99.90;;;;;;5058238;28;20064;-87
2022/04/13 06:29:28;;;;;;;22.33;15.55;;;13.30;99.90;;;;;;5046265;28;20086;-88
2022/04/13 06:31:54;;;;;;;25.23;16.33;;;13.50;99.90;;;;;;5063116;28;20481;-87
2022/04/13 06:34:19;;;;;;;22.05;15.65;;;13.60;99.90;;;;;;5061155;28;20070;-87
2022/04/13 06:36:45;;;;;;;24.88;16.90;;;13.60;99.90;;;;;;5044662;28;20040;-87
2022/04/13 06:39:11;;;;;;;20.80;15.98;;;13.80;99.90;;;;;;5041475;28;20045;-86
2022/04/13 06:41:40;;;;;;;23.48;16.83;;;13.80;99.90;;;;;;5041521;28;20067;-85
2022/04/13 06:44:06;;;;;;;24.92;16.60;;;13.80;99.90;;;;;;5035506;28;20041;-87
2022/04/13 06:46:34;;;;;;;24.35;16.02;;;13.80;99.90;;;;;;5060792;28;20264;-88
2022/04/13 06:49:02;;;;;;;21.98;16.13;;;13.90;99.90;;;;;;5042661;28;20849;-86
2022/04/13 06:51:31;;;;;;;27.25;16.58;;;13.90;99.90;;;;;;5042427;28;20450;-86
2022/04/13 06:53:56;;;;;;;22.90;16.45;;;13.90;99.90;;;;;;5060021;28;20039;-87
2022/04/13 06:56:22;;;;;;;24.48;16.08;;;14.00;99.90;;;;;;5042448;28;20040;-87
2022/04/13 06:58:48;;;;;;;26.10;17.17;;;14.10;99.90;;;;;;5046026;28;20100;-86
2022/04/13 07:01:14;;;;;;;25.20;16.40;;;14.10;99.90;;;;;;5042855;28;20115;-88
2022/04/13 07:03:43;;;;;;;21.83;15.65;;;14.20;99.90;;;;;;5043340;28;20537;-88
2022/04/13 07:06:11;;;;;;;24.40;16.25;;;14.20;99.90;;;;;;5058407;28;20040;-87
2022/04/13 07:08:37;;;;;;;23.30;16.27;;;14.20;99.90;;;;;;5039564;28;21143;-87
2022/04/13 07:11:09;;;;;;;24.65;16.50;;;14.30;99.90;;;;;;5040856;28;20375;-87
2022/04/13 07:13:37;;;;;;;23.92;16.80;;;14.40;99.90;;;;;;5033956;28;20041;-87
2022/04/13 07:16:06;;;;;;;26.60;16.20;;;14.30;99.90;;;;;;5040740;28;20031;-86
2022/04/13 07:18:34;;;;;;;24.90;16.90;;;14.50;99.90;;;;;;5042461;28;20123;-87
2022/04/13 07:21:01;;;;;;;23.23;15.95;;;14.50;99.90;;;;;;5058329;28;20579;-87
2022/04/13 07:23:26;;;;;;;24.90;17.08;;;14.40;99.90;;;;;;5042244;28;20127;-87
2022/04/13 07:25:58;;;;;;;22.25;15.73;;;14.60;99.90;;;;;;5059794;28;20112;-87
2022/04/13 07:28:27;;;;;;;19.70;14.95;;;14.70;99.90;;;;;;5038068;28;20522;-87
2022/04/13 07:30:53;;;;;;;21.88;15.77;;;14.70;99.90;;;;;;5035998;28;20036;-87
2022/04/13 07:33:27;;;;;;;25.00;15.32;;;14.90;99.90;;;;;;5041218;28;20063;-86
2022/04/13 07:35:53;;;;;;;19.77;13.48;;;15.00;99.90;;;;;;5041405;28;20513;-86
2022/04/13 07:38:19;;;;;;;17.63;12.40;;;15.10;99.90;;;;;;5038732;28;20097;-87
2022/04/13 07:40:48;;;;;;;19.88;13.07;;;15.00;99.90;;;;;;5041468;28;20040;-86
2022/04/13 07:43:17;;;;;;;19.83;13.65;;;15.00;99.90;;;;;;5044004;28;20066;-87
2022/04/13 07:45:43;;;;;;;20.90;13.25;;;15.20;99.90;;;;;;5033407;28;20051;-87
2022/04/13 07:48:09;;;;;;;18.75;12.57;;;15.10;99.90;;;;;;5042193;28;20045;-86
2022/04/13 07:50:47;;;;;;;19.13;13.20;;;15.20;99.90;;;;;;5039046;28;20135;-86
2022/04/13 07:53:16;;;;;;;17.05;12.95;;;15.10;99.90;;;;;;5041729;28;20075;-86
2022/04/13 07:55:42;;;;;;;19.55;12.85;;;15.10;99.90;;;;;;5039661;28;20063;-86
2022/04/13 07:58:10;;;;;;;19.85;13.63;;;15.20;99.90;;;;;;5041745;28;20349;-87
2022/04/13 08:00:36;;;;;;;21.85;12.60;;;15.30;99.90;;;;;;5033201;28;20213;-88
2022/04/13 08:03:11;;;;;;;17.90;12.93;;;15.40;99.90;;;;;;5039691;28;20082;-87
2022/04/13 08:05:48;;;;;;;20.70;12.70;;;15.30;99.90;;;;;;5056497;28;20504;-87
2022/04/13 08:08:16;;;;;;;18.50;12.60;;;15.30;99.90;;;;;;5035656;28;20227;-87
2022/04/13 08:10:47;;;;;;;20.25;13.10;;;15.40;99.90;;;;;;5037778;28;20548;-87
2022/04/13 08:13:13;;;;;;;18.90;12.90;;;15.40;99.90;;;;;;5041106;28;20048;-87
2022/04/13 08:15:42;;;;;;;20.33;13.35;;;15.50;99.90;;;;;;5059253;28;20058;-87
2022/04/13 08:18:10;;;;;;;17.55;12.55;;;15.70;99.90;;;;;;5040917;28;20483;-86
2022/04/13 08:20:39;;;;;;;17.85;12.65;;;15.80;99.90;;;;;;5057747;28;20119;-86
2022/04/13 08:23:05;;;;;;;18.80;12.50;;;16.00;99.90;;;;;;5041387;28;20500;-87
2022/04/13 08:25:31;;;;;;;18.00;13.05;;;16.10;99.90;;;;;;5041372;28;20155;-86
2022/04/13 08:27:57;;;;;;;16.85;12.98;;;16.20;99.90;;;;;;5040924;28;20488;-86
2022/04/13 08:30:32;;;;;;;17.38;12.23;;;16.30;99.90;;;;;;5058801;28;20040;-87
2022/04/13 08:33:00;;;;;;;15.77;11.60;;;16.20;99.90;;;;;;5041535;28;20480;-87
2022/04/13 08:35:26;;;;;;;17.27;12.60;;;16.30;99.90;;;;;;5060748;28;20060;-86
2022/04/13 08:37:55;;;;;;;17.45;12.30;;;16.20;99.90;;;;;;5056681;28;20048;-87
2022/04/13 08:40:22;;;;;;;20.10;11.90;;;16.30;99.90;;;;;;5042182;28;20071;-87
2022/04/13 08:43:22;;;;;;;17.02;11.23;;;16.40;99.90;;;;;;5035040;28;20784;-87
2022/04/13 08:46:01;;;;;;;18.40;11.35;;;16.40;99.90;;;;;;5022683;28;20048;-87
2022/04/13 08:48:55;;;;;;;15.70;11.60;;;16.60;99.90;;;;;;5040070;28;20553;-86
2022/04/13 08:51:30;;;;;;;17.55;11.50;;;16.70;99.90;;;;;;5036382;28;20036;-87
2022/04/13 08:54:19;;;;;;;15.60;10.88;;;16.50;99.90;;;;;;5055561;28;20044;-87
2022/04/13 08:56:50;;;;;;;14.98;11.10;;;16.80;99.90;;;;;;5039865;28;20108;-88
2022/04/13 08:59:25;;;;;;;15.68;9.93;;;16.90;99.90;;;;;;5039950;28;20045;-86
2022/04/13 09:02:07;;;;;;;14.40;10.98;;;16.90;99.90;;;;;;5037313;28;20051;-87
2022/04/13 09:04:42;;;;;;;18.75;11.18;;;17.10;99.90;;;;;;5056165;28;20511;-87
2022/04/13 09:07:16;;;;;;;16.52;10.57;;;16.90;99.90;;;;;;5036627;28;20056;-86
2022/04/13 09:09:46;;;;;;;16.10;10.68;;;16.80;99.90;;;;;;5040390;28;20041;-86
2022/04/13 09:12:19;;;;;;;12.98;10.15;;;16.60;99.90;;;;;;5054295;28;20040;-88
2022/04/13 09:14:47;;;;;;;14.93;10.80;;;16.80;99.90;;;;;;5057358;28;20106;-87
2022/04/13 09:17:13;;;;;;;15.55;10.30;;;17.00;99.90;;;;;;5054620;28;20037;-87
2022/04/13 09:19:44;;;;;;;16.10;11.27;;;17.00;99.90;;;;;;5041064;28;20040;-88
2022/04/13 09:22:17;;;;;;;17.42;11.15;;;17.10;99.90;;;;;;5036247;28;20129;-88
2022/04/13 09:24:48;;;;;;;16.52;9.90;;;17.00;99.90;;;;;;5039318;28;20722;-87
2022/04/13 09:27:20;;;;;;;14.45;9.45;;;17.00;81.30;;;;;;5055498;28;20044;-87
2022/04/13 09:29:55;;;;;;;13.30;9.98;;;17.20;54.60;;;;;;5039406;28;20044;-87
2022/04/13 09:32:24;;;;;;;12.75;9.88;;;17.20;99.90;;;;;;5043134;28;20448;-87
2022/04/13 09:34:56;;;;;;;14.90;10.25;;;17.30;99.90;;;;;;5045961;28;20547;-86
2022/04/13 09:37:26;;;;;;;17.25;8.80;;;17.40;99.90;;;;;;5044162;28;20040;-87
2022/04/13 09:39:52;;;;;;;11.30;8.23;;;17.60;99.90;;;;;;5043865;28;20496;-87
2022/04/13 09:42:19;;;;;;;13.02;8.27;;;17.70;16.90;;;;;;5058595;28;20079;-87
2022/04/13 09:44:57;;;;;;;12.98;7.85;;;17.70;55.10;;;;;;5055140;28;20659;-87
2022/04/13 09:47:33;;;;;;;11.95;7.35;;;17.80;11.70;;;;;;5038102;28;20045;-87
2022/04/13 09:50:05;;;;;;;11.85;8.45;;;17.90;1.00;;;;;;5043689;28;20046;-87
2022/04/13 09:52:44;;;;;;;12.65;7.93;;;17.80;1.00;;;;;;5042074;28;20095;-87
2022/04/13 09:55:24;;;;;;;13.63;8.38;;;18.00;38.60;;;;;;5043755;28;20043;-87
2022/04/13 09:57:50;;;;;;;13.18;8.43;;;18.10;24.20;;;;;;5042409;28;20040;-86
2022/04/13 10:00:39;;;;;;;10.75;7.80;;;18.20;93.30;;;;;;5045013;28;20046;-87
2022/04/13 10:03:15;;;;;;;11.50;7.28;;;18.50;77.60;;;;;;5040056;28;20068;-87
2022/04/13 10:05:50;;;;;;;11.07;6.70;;;18.50;1.00;;;;;;5045301;28;20040;-87
2022/04/13 10:08:25;;;;;;;10.57;7.15;;;18.70;1.00;;;;;;5042937;28;20071;-88
2022/04/13 10:11:00;;;;;;;12.57;7.50;;;18.70;1.00;;;;;;5045775;28;20052;-87
2022/04/13 10:13:36;;;;;;;11.25;6.75;;;18.40;1.00;;;;;;5043560;28;20036;-87
2022/04/13 10:16:12;;;;;;;10.32;7.57;;;18.80;1.00;;;;;;5058143;28;20037;-87
2022/04/13 10:18:57;;;;;;;8.77;6.53;;;19.20;1.00;;;;;;5043084;28;20041;-87
2022/04/13 10:21:46;;;;;;;7.68;5.30;;;19.30;1.00;;;;;;5038776;28;20130;-87
2022/04/13 10:24:21;;;;;;;7.38;4.88;;;19.20;1.00;;;;;;5042778;28;20501;-88
2022/04/13 10:27:04;;;;;;;6.93;3.92;;;19.00;1.00;;;;;;5059071;28;20040;-87
2022/04/13 10:29:35;;;;;;;6.78;4.60;;;18.80;1.00;;;;;;5044451;28;20059;-86
2022/04/13 10:32:05;;;;;;;7.03;4.35;;;19.00;1.00;;;;;;5060199;28;22265;-87
2022/04/13 10:34:32;;;;;;;5.90;3.78;;;19.40;1.00;;;;;;5062208;28;20165;-86
2022/04/13 10:37:02;;;;;;;6.07;3.22;;;19.50;1.00;;;;;;5042634;28;20058;-89
2022/04/13 10:39:28;;;;;;;5.25;3.35;;;19.30;1.00;;;;;;5042279;28;20032;-87
2022/04/13 10:42:04;;;;;;;5.38;3.50;;;19.70;1.00;;;;;;5042568;28;20155;-87
2022/04/13 10:44:38;;;;;;;5.20;3.53;;;19.80;1.00;;;;;;5052443;28;20604;-88
2022/04/13 10:47:06;;;;;;;5.63;3.72;;;20.00;99.90;;;;;;5059977;28;20173;-87
2022/04/13 10:49:53;;;;;;;8.73;3.20;;;20.20;1.00;;;;;;5045693;28;20127;-88
2022/04/13 10:52:44;;;;;;;4.55;3.33;;;20.30;99.90;;;;;;5039351;28;20399;-87
2022/04/13 10:55:14;;;;;;;4.95;3.15;;;20.10;99.90;;;;;;5030322;28;20087;-87
2022/04/13 10:57:49;;;;;;;5.07;3.50;;;19.80;99.90;;;;;;5041036;28;20254;-88
2022/04/13 11:00:18;;;;;;;6.70;3.35;;;20.10;99.90;;;;;;5039576;28;20496;-87
2022/04/13 11:02:57;;;;;;;7.45;3.60;;;20.40;99.90;;;;;;5041766;28;20116;-87
2022/04/13 11:05:27;;;;;;;5.47;3.42;;;19.60;99.90;;;;;;5042730;28;20032;-89
2022/04/13 11:08:26;;;;;;;7.07;3.70;;;20.00;99.90;;;;;;5042575;28;20101;-87
2022/04/13 11:10:53;;;;;;;6.70;3.15;;;20.40;99.90;;;;;;5043013;28;20148;-87
2022/04/13 11:13:19;;;;;;;6.15;3.45;;;19.90;99.90;;;;;;5043132;28;20460;-88
2022/04/13 11:15:50;;;;;;;7.65;3.50;;;19.60;99.90;;;;;;5042008;28;20494;-87
2022/04/13 11:18:18;;;;;;;8.30;3.88;;;19.30;99.90;;;;;;5042505;28;20240;-88
2022/04/13 11:20:59;;;;;;;5.57;3.78;;;19.50;99.90;;;;;;5046564;28;20052;-88
2022/04/13 11:23:48;;;;;;;6.22;3.75;;;19.30;99.90;;;;;;5057702;28;20078;-88
2022/04/13 11:26:25;;;;;;;3.00;1.92;;;19.20;1.00;;;;;;5058913;28;20206;-88
2022/04/13 11:29:25;;;;;;;5.70;2.70;;;19.30;99.90;;;;;;5027753;28;20083;-89
2022/04/13 11:32:04;;;;;;;5.63;2.88;;;19.10;99.90;;;;;;4999012;28;20181;-89
2022/04/13 11:34:38;;;;;;;7.10;3.67;;;19.30;99.90;;;;;;4983188;28;20095;-88
2022/04/13 11:37:09;;;;;;;5.70;3.05;;;18.80;99.90;;;;;;5058021;28;20042;-87
2022/04/13 11:39:53;;;;;;;5.85;3.28;;;18.80;99.90;;;;;;5044973;28;20049;-88
2022/04/13 11:42:28;;;;;;;7.70;2.90;;;18.50;99.90;;;;;;5050645;28;20101;-89
2022/04/13 11:45:06;;;;;;;5.13;3.00;;;18.60;99.90;;;;;;5036163;28;20072;-88
2022/04/13 11:47:41;;;;;;;4.95;3.20;;;18.50;99.90;;;;;;5058308;28;20120;-87
2022/04/13 11:50:17;;;;;;;8.20;4.22;;;18.50;1.00;;;;;;5043238;28;20041;-87
2022/04/13 11:52:50;;;;;;;8.07;4.07;;;18.40;1.00;;;;;;5029899;28;20037;-88
2022/04/13 11:55:19;;;;;;;8.88;4.00;;;18.00;1.00;;;;;;5042159;28;20465;-88
2022/04/13 11:58:07;;;;;;;5.97;2.90;;;18.00;1.00;;;;;;5040642;28;20159;-90
2022/04/13 12:01:19;;;;;;;5.32;2.72;;;17.90;99.90;;;;;;5042429;28;20497;-88
2022/04/13 12:03:48;;;;;;;5.15;2.08;;;17.80;1.00;;;;;;5038538;28;20055;-88
2022/04/13 12:06:19;;;;;;;5.68;2.05;;;17.80;1.00;;;;;;5040662;28;20056;-88
2022/04/13 12:08:52;;;;;;;6.82;1.80;;;17.70;1.00;;;;;;5040901;28;20052;-88
2022/04/13 12:11:21;;;;;;;5.88;1.83;;;17.60;99.90;;;;;;5041807;28;20063;-88
2022/04/13 12:14:00;;;;;;;5.93;1.90;;;17.70;99.90;;;;;;5042207;28;20162;-88
2022/04/13 12:16:28;;;;;;;5.38;2.05;;;18.00;99.90;;;;;;5041903;28;20480;-89
2022/04/13 12:18:59;;;;;;;8.00;2.22;;;17.80;99.90;;;;;;5042444;28;20214;-90
2022/04/13 12:21:36;;;;;;;5.93;2.40;;;17.80;1.00;;;;;;5053403;28;20040;-89
2022/04/13 12:24:13;;;;;;;4.38;2.05;;;17.90;1.00;;;;;;5040160;28;20467;-89
2022/04/13 12:26:51;;;;;;;8.63;2.63;;;18.50;1.00;;;;;;5040553;28;20123;-89
2022/04/13 12:29:24;;;;;;;5.25;2.30;;;18.50;1.00;;;;;;5040842;28;20044;-89
2022/04/13 12:31:58;;;;;;;5.20;2.20;;;18.40;99.90;;;;;;5042733;28;20036;-89
2022/04/13 12:34:43;;;;;;;8.13;2.58;;;18.30;99.90;;;;;;5059266;28;20036;-88
2022/04/13 12:37:18;;;;;;;7.50;2.53;;;17.90;99.90;;;;;;5040776;28;20059;-88
2022/04/13 12:39:43;;;;;;;6.68;2.60;;;17.60;1.00;;;;;;5054184;28;20576;-88
2022/04/13 12:45:22;;;;;;;12.80;3.65;;;17.60;1.00;;;;;;5059964;28;20186;-90
2022/04/13 12:47:51;;;;;;;11.23;4.05;;;17.60;1.00;;;;;;5041555;28;20066;-88
2022/04/13 12:50:34;;;;;;;7.55;3.88;;;17.40;1.00;;;;;;5042738;28;20036;-89
2022/04/13 12:53:02;;;;;;;6.30;3.60;;;17.40;1.00;;;;;;5042610;28;20116;-88